Lexington, KY (40583)

10:12 PM EST on November 27, 2014 (GMT -0500)
Eastland | Change Station
CLOSE
Current Station
Personal Weather Station
Location: Lexington, KY
Elevation: 988 ft
Nearby Weather Stations

Elev 988 ft 38.06 °N, 84.43 °W | Updated 9 minutes ago

Overcast
Overcast
28.0 °F
Feels Like 23 °F
N
4.2
Wind Variable Wind from WSW

Today
High -- | Low -- °F
--% Chance of Precip.
Yesterday
High -- | Low -- °F
Precip. -- in
7:31 AM 5:19 PM
Waxing Crescent, 35% visible
Pressure 30.44 in
Visibility 10.0 miles
Clouds Few 2300 ft
Overcast 3000 ft
Windchill 23 °F
Dew Point 20 °F
Humidity 73%
Rainfall 0.00 in
Snow Depth Not available.
UV 0 out of 12
Pollen .10 out of 12
Air Quality Not available.
Flu Activity Not available.
METAR KLEX 280254Z 29007KT 10SM FEW023 OVC030 M02/M07 A3041 RMK AO2 SLP307 T10221072 51011

More Conditions Fewer Conditions

Pressure 30.44 in
Visibility 10.0 miles
Clouds Few 2300 ft
Overcast 3000 ft
Windchill 23 °F
Dew Point 20 °F
Humidity 73%
Rainfall 0.00 in
Snow Depth Not available.
UV 0 out of 12
Pollen .10 out of 12
Air Quality Not available.
Flu Activity Not available.
METAR KLEX 280254Z 29007KT 10SM FEW023 OVC030 M02/M07 A3041 RMK AO2 SLP307 T10221072 51011

More Conditions Fewer Conditions

10-Day Weather Forecast

Almanac

Astronomy

Nov. 27, 2014 Rise Set
Actual Time
Civil Twilight
Nautical Twilight
Astronomical Twilight
Moon
Length of Visible Light
Length of Day
Tomorrow will be .
, % of the Moon is Illuminated

Today's Extremes

State Highs State Lows

Community

WunderPhotos

Upload Photos

1,774,168 photos uploaded!

WunderBlogs® & News

Nearby

Air Quality

  Air Quality AQ Index Pollutant
Not available.

Snow Depth

Station Depth Elevation

Earthquake Activity

City Distance Mag. Time & Date
Minimum magnitude displayed is 2.5.

Coastal Water Temperatures

Place Temperature

Nearby Weather Stations